sensor_id;sensor_type;location;lat;lon;timestamp;temperature;humidity
76263;DHT22;65080;50.908;6.916;2023-08-12T00:02:17;23.00;92.60
76263;DHT22;65080;50.908;6.916;2023-08-12T00:04:47;23.00;92.70
76263;DHT22;65080;50.908;6.916;2023-08-12T00:07:15;22.90;92.70
76263;DHT22;65080;50.908;6.916;2023-08-12T00:09:43;22.90;92.80
76263;DHT22;65080;50.908;6.916;2023-08-12T00:12:11;22.90;92.80
76263;DHT22;65080;50.908;6.916;2023-08-12T00:14:40;22.90;93.00
76263;DHT22;65080;50.908;6.916;2023-08-12T00:17:08;22.80;92.90
76263;DHT22;65080;50.908;6.916;2023-08-12T00:19:37;22.80;93.20
76263;DHT22;65080;50.908;6.916;2023-08-12T00:22:06;22.80;93.40
76263;DHT22;65080;50.908;6.916;2023-08-12T00:24:34;22.80;93.60
76263;DHT22;65080;50.908;6.916;2023-08-12T00:27:03;22.80;93.70
76263;DHT22;65080;50.908;6.916;2023-08-12T00:29:31;22.80;93.70
76263;DHT22;65080;50.908;6.916;2023-08-12T00:31:59;22.80;93.70
76263;DHT22;65080;50.908;6.916;2023-08-12T00:34:28;22.90;93.80
76263;DHT22;65080;50.908;6.916;2023-08-12T00:36:56;22.90;93.90
76263;DHT22;65080;50.908;6.916;2023-08-12T00:39:25;22.90;93.80
76263;DHT22;65080;50.908;6.916;2023-08-12T00:41:54;22.90;93.90
76263;DHT22;65080;50.908;6.916;2023-08-12T00:44:22;22.90;93.90
76263;DHT22;65080;50.908;6.916;2023-08-12T00:46:50;22.90;93.90
76263;DHT22;65080;50.908;6.916;2023-08-12T00:49:19;22.90;93.90
76263;DHT22;65080;50.908;6.916;2023-08-12T00:51:49;22.90;94.00
76263;DHT22;65080;50.908;6.916;2023-08-12T00:54:17;22.80;93.90
76263;DHT22;65080;50.908;6.916;2023-08-12T00:56:48;22.80;93.90
76263;DHT22;65080;50.908;6.916;2023-08-12T00:59:20;22.80;94.00
76263;DHT22;65080;50.908;6.916;2023-08-12T01:01:50;22.80;94.00
76263;DHT22;65080;50.908;6.916;2023-08-12T01:04:18;22.80;93.90
76263;DHT22;65080;50.908;6.916;2023-08-12T01:06:46;22.80;93.90
76263;DHT22;65080;50.908;6.916;2023-08-12T01:09:15;22.80;94.00
76263;DHT22;65080;50.908;6.916;2023-08-12T01:11:50;22.80;94.10
76263;DHT22;65080;50.908;6.916;2023-08-12T01:14:25;22.80;94.10
76263;DHT22;65080;50.908;6.916;2023-08-12T01:17:00;22.80;94.10
76263;DHT22;65080;50.908;6.916;2023-08-12T01:19:33;22.80;94.10
76263;DHT22;65080;50.908;6.916;2023-08-12T01:22:02;22.80;94.10
76263;DHT22;65080;50.908;6.916;2023-08-12T01:24:35;22.80;94.10
76263;DHT22;65080;50.908;6.916;2023-08-12T01:27:05;22.80;94.10
76263;DHT22;65080;50.908;6.916;2023-08-12T01:29:34;22.80;94.20
76263;DHT22;65080;50.908;6.916;2023-08-12T01:32:08;22.80;94.20
76263;DHT22;65080;50.908;6.916;2023-08-12T01:34:43;22.80;94.20
76263;DHT22;65080;50.908;6.916;2023-08-12T01:37:17;22.80;94.10
76263;DHT22;65080;50.908;6.916;2023-08-12T01:39:50;22.80;94.10
76263;DHT22;65080;50.908;6.916;2023-08-12T01:42:19;22.80;94.00
76263;DHT22;65080;50.908;6.916;2023-08-12T01:44:48;22.80;94.00
76263;DHT22;65080;50.908;6.916;2023-08-12T01:47:16;22.80;94.10
76263;DHT22;65080;50.908;6.916;2023-08-12T01:49:44;22.70;94.00
76263;DHT22;65080;50.908;6.916;2023-08-12T01:52:12;22.70;94.00
76263;DHT22;65080;50.908;6.916;2023-08-12T01:54:41;22.70;94.00
76263;DHT22;65080;50.908;6.916;2023-08-12T01:57:11;22.70;94.10
76263;DHT22;65080;50.908;6.916;2023-08-12T01:59:39;22.70;94.00
76263;DHT22;65080;50.908;6.916;2023-08-12T02:02:08;22.80;94.10
76263;DHT22;65080;50.908;6.916;2023-08-12T02:04:37;22.70;94.10
76263;DHT22;65080;50.908;6.916;2023-08-12T02:07:05;22.70;94.00
76263;DHT22;65080;50.908;6.916;2023-08-12T02:09:34;22.70;94.10
76263;DHT22;65080;50.908;6.916;2023-08-12T02:12:02;22.70;94.10
76263;DHT22;65080;50.908;6.916;2023-08-12T02:14:32;22.70;94.00
76263;DHT22;65080;50.908;6.916;2023-08-12T02:17:00;22.70;94.00
76263;DHT22;65080;50.908;6.916;2023-08-12T02:19:28;22.70;93.90
76263;DHT22;65080;50.908;6.916;2023-08-12T02:21:57;22.70;93.90
76263;DHT22;65080;50.908;6.916;2023-08-12T02:24:25;22.70;93.90
76263;DHT22;65080;50.908;6.916;2023-08-12T02:26:53;22.70;93.80
76263;DHT22;65080;50.908;6.916;2023-08-12T02:29:22;22.50;93.70
76263;DHT22;65080;50.908;6.916;2023-08-12T02:31:51;22.60;93.80
76263;DHT22;65080;50.908;6.916;2023-08-12T02:34:20;22.60;93.80
76263;DHT22;65080;50.908;6.916;2023-08-12T02:36:48;22.60;93.80
76263;DHT22;65080;50.908;6.916;2023-08-12T02:39:16;22.60;93.90
76263;DHT22;65080;50.908;6.916;2023-08-12T02:41:44;22.50;93.80
76263;DHT22;65080;50.908;6.916;2023-08-12T02:44:13;22.50;93.80
76263;DHT22;65080;50.908;6.916;2023-08-12T02:46:41;22.50;93.80
76263;DHT22;65080;50.908;6.916;2023-08-12T02:49:10;22.40;93.80
76263;DHT22;65080;50.908;6.916;2023-08-12T02:51:38;22.50;93.90
76263;DHT22;65080;50.908;6.916;2023-08-12T02:54:07;22.50;93.90
76263;DHT22;65080;50.908;6.916;2023-08-12T02:56:35;22.50;94.00
76263;DHT22;65080;50.908;6.916;2023-08-12T02:59:04;22.50;93.90
76263;DHT22;65080;50.908;6.916;2023-08-12T03:01:32;22.50;93.90
76263;DHT22;65080;50.908;6.916;2023-08-12T03:04:01;22.50;93.90
76263;DHT22;65080;50.908;6.916;2023-08-12T03:06:30;22.50;94.00
76263;DHT22;65080;50.908;6.916;2023-08-12T03:08:58;22.50;93.90
76263;DHT22;65080;50.908;6.916;2023-08-12T03:11:27;22.50;93.90
76263;DHT22;65080;50.908;6.916;2023-08-12T03:13:55;22.50;93.90
76263;DHT22;65080;50.908;6.916;2023-08-12T03:16:23;22.50;93.90
76263;DHT22;65080;50.908;6.916;2023-08-12T03:18:51;22.50;93.80
76263;DHT22;65080;50.908;6.916;2023-08-12T03:21:20;22.50;93.80
76263;DHT22;65080;50.908;6.916;2023-08-12T03:23:49;22.50;93.80
76263;DHT22;65080;50.908;6.916;2023-08-12T03:26:17;22.50;93.70
76263;DHT22;65080;50.908;6.916;2023-08-12T03:28:45;22.40;93.70
76263;DHT22;65080;50.908;6.916;2023-08-12T03:31:14;22.50;93.70
76263;DHT22;65080;50.908;6.916;2023-08-12T03:33:42;22.60;93.70
76263;DHT22;65080;50.908;6.916;2023-08-12T03:36:10;22.50;93.60
76263;DHT22;65080;50.908;6.916;2023-08-12T03:38:38;22.50;93.60
76263;DHT22;65080;50.908;6.916;2023-08-12T03:41:10;22.50;93.60
76263;DHT22;65080;50.908;6.916;2023-08-12T03:43:38;22.50;93.70
76263;DHT22;65080;50.908;6.916;2023-08-12T03:46:06;22.50;93.60
76263;DHT22;65080;50.908;6.916;2023-08-12T03:48:35;22.50;93.60
76263;DHT22;65080;50.908;6.916;2023-08-12T03:51:03;22.50;93.60
76263;DHT22;65080;50.908;6.916;2023-08-12T03:53:31;22.40;93.40
76263;DHT22;65080;50.908;6.916;2023-08-12T03:55:59;22.40;93.30
76263;DHT22;65080;50.908;6.916;2023-08-12T03:58:30;22.40;93.30
76263;DHT22;65080;50.908;6.916;2023-08-12T04:00:58;22.30;93.20
76263;DHT22;65080;50.908;6.916;2023-08-12T04:03:26;22.30;93.20
76263;DHT22;65080;50.908;6.916;2023-08-12T04:05:55;22.30;93.20
76263;DHT22;65080;50.908;6.916;2023-08-12T04:08:23;22.20;93.10
76263;DHT22;65080;50.908;6.916;2023-08-12T04:10:52;22.20;93.20
76263;DHT22;65080;50.908;6.916;2023-08-12T04:13:20;22.20;93.20
76263;DHT22;65080;50.908;6.916;2023-08-12T04:15:50;22.10;93.10
76263;DHT22;65080;50.908;6.916;2023-08-12T04:18:20;22.10;93.20
76263;DHT22;65080;50.908;6.916;2023-08-12T04:20:48;22.00;93.10
76263;DHT22;65080;50.908;6.916;2023-08-12T04:23:17;21.90;93.10
76263;DHT22;65080;50.908;6.916;2023-08-12T04:25:46;21.90;93.20
76263;DHT22;65080;50.908;6.916;2023-08-12T04:28:15;21.90;93.20
76263;DHT22;65080;50.908;6.916;2023-08-12T04:30:45;21.90;93.20
76263;DHT22;65080;50.908;6.916;2023-08-12T04:33:15;21.90;93.20
76263;DHT22;65080;50.908;6.916;2023-08-12T04:35:43;21.90;93.20
76263;DHT22;65080;50.908;6.916;2023-08-12T04:38:11;21.90;93.20
76263;DHT22;65080;50.908;6.916;2023-08-12T04:40:40;21.80;93.10
76263;DHT22;65080;50.908;6.916;2023-08-12T04:43:09;21.80;93.10
76263;DHT22;65080;50.908;6.916;2023-08-12T04:45:38;21.80;93.20
76263;DHT22;65080;50.908;6.916;2023-08-12T04:48:06;21.80;93.20
76263;DHT22;65080;50.908;6.916;2023-08-12T04:50:37;21.90;93.30
76263;DHT22;65080;50.908;6.916;2023-08-12T04:53:06;21.80;93.30
76263;DHT22;65080;50.908;6.916;2023-08-12T04:55:35;21.80;93.30
76263;DHT22;65080;50.908;6.916;2023-08-12T04:58:03;21.80;93.30
76263;DHT22;65080;50.908;6.916;2023-08-12T05:00:32;21.90;93.40
76263;DHT22;65080;50.908;6.916;2023-08-12T05:03:00;21.90;93.50
76263;DHT22;65080;50.908;6.916;2023-08-12T05:05:29;21.90;93.50
76263;DHT22;65080;50.908;6.916;2023-08-12T05:07:59;22.00;93.60
76263;DHT22;65080;50.908;6.916;2023-08-12T05:10:27;22.00;93.50
76263;DHT22;65080;50.908;6.916;2023-08-12T05:12:57;22.00;93.50
76263;DHT22;65080;50.908;6.916;2023-08-12T05:15:26;22.10;93.50
76263;DHT22;65080;50.908;6.916;2023-08-12T05:17:54;22.10;93.50
76263;DHT22;65080;50.908;6.916;2023-08-12T05:20:22;22.10;93.40
76263;DHT22;65080;50.908;6.916;2023-08-12T05:22:50;22.10;93.40
76263;DHT22;65080;50.908;6.916;2023-08-12T05:25:20;22.10;93.30
76263;DHT22;65080;50.908;6.916;2023-08-12T05:27:49;22.10;93.30
76263;DHT22;65080;50.908;6.916;2023-08-12T05:30:17;22.10;93.40
76263;DHT22;65080;50.908;6.916;2023-08-12T05:32:45;22.20;93.30
76263;DHT22;65080;50.908;6.916;2023-08-12T05:35:14;22.10;93.20
76263;DHT22;65080;50.908;6.916;2023-08-12T05:37:42;22.20;93.20
76263;DHT22;65080;50.908;6.916;2023-08-12T05:40:10;22.20;93.20
76263;DHT22;65080;50.908;6.916;2023-08-12T05:42:40;22.20;93.20
76263;DHT22;65080;50.908;6.916;2023-08-12T05:45:09;22.20;93.20
76263;DHT22;65080;50.908;6.916;2023-08-12T05:47:37;22.20;93.10
76263;DHT22;65080;50.908;6.916;2023-08-12T05:50:06;22.20;93.40
76263;DHT22;65080;50.908;6.916;2023-08-12T05:52:35;22.20;93.10
76263;DHT22;65080;50.908;6.916;2023-08-12T05:55:04;22.20;93.20
76263;DHT22;65080;50.908;6.916;2023-08-12T05:57:32;22.20;93.30
76263;DHT22;65080;50.908;6.916;2023-08-12T06:00:03;22.20;93.30
76263;DHT22;65080;50.908;6.916;2023-08-12T06:02:32;22.20;93.50
76263;DHT22;65080;50.908;6.916;2023-08-12T06:05:01;22.20;93.50
76263;DHT22;65080;50.908;6.916;2023-08-12T06:07:29;22.20;93.50
76263;DHT22;65080;50.908;6.916;2023-08-12T06:09:58;22.20;93.60
76263;DHT22;65080;50.908;6.916;2023-08-12T06:12:26;22.20;93.70
76263;DHT22;65080;50.908;6.916;2023-08-12T06:14:54;22.20;93.80
76263;DHT22;65080;50.908;6.916;2023-08-12T06:17:24;22.10;93.80
76263;DHT22;65080;50.908;6.916;2023-08-12T06:19:52;22.10;93.90
76263;DHT22;65080;50.908;6.916;2023-08-12T06:22:20;22.10;93.90
76263;DHT22;65080;50.908;6.916;2023-08-12T06:24:48;22.10;93.90
76263;DHT22;65080;50.908;6.916;2023-08-12T06:27:17;22.10;93.90
76263;DHT22;65080;50.908;6.916;2023-08-12T06:29:47;22.10;93.90
76263;DHT22;65080;50.908;6.916;2023-08-12T06:32:15;22.10;93.80
76263;DHT22;65080;50.908;6.916;2023-08-12T06:34:44;22.00;93.70
76263;DHT22;65080;50.908;6.916;2023-08-12T06:37:13;22.00;93.70
76263;DHT22;65080;50.908;6.916;2023-08-12T06:39:41;22.00;93.70
76263;DHT22;65080;50.908;6.916;2023-08-12T06:42:09;21.90;93.60
76263;DHT22;65080;50.908;6.916;2023-08-12T06:44:39;21.90;93.50
76263;DHT22;65080;50.908;6.916;2023-08-12T06:47:07;22.00;93.50
76263;DHT22;65080;50.908;6.916;2023-08-12T06:49:35;22.00;93.50
76263;DHT22;65080;50.908;6.916;2023-08-12T06:52:05;21.90;93.30
76263;DHT22;65080;50.908;6.916;2023-08-12T06:54:34;21.90;93.40
76263;DHT22;65080;50.908;6.916;2023-08-12T06:57:02;22.00;93.50
76263;DHT22;65080;50.908;6.916;2023-08-12T06:59:30;21.90;93.40
76263;DHT22;65080;50.908;6.916;2023-08-12T07:01:59;21.90;93.30
76263;DHT22;65080;50.908;6.916;2023-08-12T07:04:27;21.90;93.30
76263;DHT22;65080;50.908;6.916;2023-08-12T07:06:55;21.90;93.20
76263;DHT22;65080;50.908;6.916;2023-08-12T07:09:25;21.90;93.10
76263;DHT22;65080;50.908;6.916;2023-08-12T07:11:53;21.90;93.00
76263;DHT22;65080;50.908;6.916;2023-08-12T07:14:21;21.90;92.90
76263;DHT22;65080;50.908;6.916;2023-08-12T07:16:50;21.90;92.90
76263;DHT22;65080;50.908;6.916;2023-08-12T07:19:18;21.90;92.90
76263;DHT22;65080;50.908;6.916;2023-08-12T07:21:46;22.00;92.90
76263;DHT22;65080;50.908;6.916;2023-08-12T07:24:15;22.00;92.90
76263;DHT22;65080;50.908;6.916;2023-08-12T07:26:44;22.00;93.00
76263;DHT22;65080;50.908;6.916;2023-08-12T07:29:13;22.00;93.00
76263;DHT22;65080;50.908;6.916;2023-08-12T07:31:42;22.10;93.20
76263;DHT22;65080;50.908;6.916;2023-08-12T07:34:10;22.10;93.10
76263;DHT22;65080;50.908;6.916;2023-08-12T07:36:40;22.10;93.00
76263;DHT22;65080;50.908;6.916;2023-08-12T07:39:08;22.20;93.00
76263;DHT22;65080;50.908;6.916;2023-08-12T07:41:36;22.20;92.90
76263;DHT22;65080;50.908;6.916;2023-08-12T07:44:06;22.20;92.70
76263;DHT22;65080;50.908;6.916;2023-08-12T07:46:35;22.20;92.70
76263;DHT22;65080;50.908;6.916;2023-08-12T07:49:03;22.30;92.80
76263;DHT22;65080;50.908;6.916;2023-08-12T07:51:32;22.30;92.70
76263;DHT22;65080;50.908;6.916;2023-08-12T07:54:00;22.30;92.70
76263;DHT22;65080;50.908;6.916;2023-08-12T07:56:28;22.40;92.80
76263;DHT22;65080;50.908;6.916;2023-08-12T07:58:56;22.50;92.80
76263;DHT22;65080;50.908;6.916;2023-08-12T08:01:26;22.60;92.70
76263;DHT22;65080;50.908;6.916;2023-08-12T08:03:55;22.70;92.80
76263;DHT22;65080;50.908;6.916;2023-08-12T08:06:23;22.80;92.80
76263;DHT22;65080;50.908;6.916;2023-08-12T08:08:52;22.90;92.50
76263;DHT22;65080;50.908;6.916;2023-08-12T08:11:20;22.90;92.10
76263;DHT22;65080;50.908;6.916;2023-08-12T08:13:48;22.90;92.00
76263;DHT22;65080;50.908;6.916;2023-08-12T08:16:17;22.90;91.90
76263;DHT22;65080;50.908;6.916;2023-08-12T08:18:46;23.00;91.90
76263;DHT22;65080;50.908;6.916;2023-08-12T08:21:15;23.10;91.80
76263;DHT22;65080;50.908;6.916;2023-08-12T08:23:43;23.20;91.60
76263;DHT22;65080;50.908;6.916;2023-08-12T08:26:12;23.20;91.30
76263;DHT22;65080;50.908;6.916;2023-08-12T08:28:42;23.10;91.10
76263;DHT22;65080;50.908;6.916;2023-08-12T08:31:10;23.20;90.90
76263;DHT22;65080;50.908;6.916;2023-08-12T08:33:39;23.20;90.80
76263;DHT22;65080;50.908;6.916;2023-08-12T08:36:12;23.20;90.80
76263;DHT22;65080;50.908;6.916;2023-08-12T08:38:40;23.20;90.80
76263;DHT22;65080;50.908;6.916;2023-08-12T08:41:09;23.20;90.80
76263;DHT22;65080;50.908;6.916;2023-08-12T08:43:40;23.30;90.70
76263;DHT22;65080;50.908;6.916;2023-08-12T08:46:12;23.30;90.60
76263;DHT22;65080;50.908;6.916;2023-08-12T08:48:42;23.40;90.60
76263;DHT22;65080;50.908;6.916;2023-08-12T08:51:12;23.40;90.60
76263;DHT22;65080;50.908;6.916;2023-08-12T08:53:41;23.50;90.60
76263;DHT22;65080;50.908;6.916;2023-08-12T08:56:11;23.50;90.60
76263;DHT22;65080;50.908;6.916;2023-08-12T08:58:42;23.50;90.60
76263;DHT22;65080;50.908;6.916;2023-08-12T09:01:10;23.50;90.40
76263;DHT22;65080;50.908;6.916;2023-08-12T09:03:40;23.60;90.30
76263;DHT22;65080;50.908;6.916;2023-08-12T09:06:08;23.60;90.20
76263;DHT22;65080;50.908;6.916;2023-08-12T09:08:43;23.60;90.10
76263;DHT22;65080;50.908;6.916;2023-08-12T09:11:13;23.70;90.00
76263;DHT22;65080;50.908;6.916;2023-08-12T09:13:41;23.70;89.70
76263;DHT22;65080;50.908;6.916;2023-08-12T09:16:10;23.80;89.60
76263;DHT22;65080;50.908;6.916;2023-08-12T09:18:40;23.80;89.40
76263;DHT22;65080;50.908;6.916;2023-08-12T09:21:09;23.90;89.20
76263;DHT22;65080;50.908;6.916;2023-08-12T09:23:37;23.90;88.70
76263;DHT22;65080;50.908;6.916;2023-08-12T09:26:18;24.00;88.30
76263;DHT22;65080;50.908;6.916;2023-08-12T09:28:47;24.00;88.00
76263;DHT22;65080;50.908;6.916;2023-08-12T09:31:24;24.10;88.00
76263;DHT22;65080;50.908;6.916;2023-08-12T09:33:54;24.20;87.60
76263;DHT22;65080;50.908;6.916;2023-08-12T09:36:28;24.20;87.80
76263;DHT22;65080;50.908;6.916;2023-08-12T09:38:57;24.30;87.70
76263;DHT22;65080;50.908;6.916;2023-08-12T09:41:27;24.40;87.30
76263;DHT22;65080;50.908;6.916;2023-08-12T09:43:56;24.50;86.80
76263;DHT22;65080;50.908;6.916;2023-08-12T09:46:24;24.60;86.60
76263;DHT22;65080;50.908;6.916;2023-08-12T09:48:53;24.80;86.50
76263;DHT22;65080;50.908;6.916;2023-08-12T09:51:21;25.00;85.80
76263;DHT22;65080;50.908;6.916;2023-08-12T09:53:51;25.00;84.20
76263;DHT22;65080;50.908;6.916;2023-08-12T09:56:23;25.10;83.50
76263;DHT22;65080;50.908;6.916;2023-08-12T09:58:54;25.20;83.30
76263;DHT22;65080;50.908;6.916;2023-08-12T10:01:23;25.20;82.80
76263;DHT22;65080;50.908;6.916;2023-08-12T10:03:53;25.30;82.20
76263;DHT22;65080;50.908;6.916;2023-08-12T10:06:23;25.30;81.50
76263;DHT22;65080;50.908;6.916;2023-08-12T10:08:53;25.30;81.30
76263;DHT22;65080;50.908;6.916;2023-08-12T10:11:21;25.20;81.10
76263;DHT22;65080;50.908;6.916;2023-08-12T10:13:49;25.20;81.20
76263;DHT22;65080;50.908;6.916;2023-08-12T10:16:20;25.10;81.20
76263;DHT22;65080;50.908;6.916;2023-08-12T10:18:49;25.10;81.30
76263;DHT22;65080;50.908;6.916;2023-08-12T10:21:18;25.00;80.60
76263;DHT22;65080;50.908;6.916;2023-08-12T10:23:47;25.00;79.70
76263;DHT22;65080;50.908;6.916;2023-08-12T10:26:15;24.90;79.30
76263;DHT22;65080;50.908;6.916;2023-08-12T10:28:45;24.90;79.40
76263;DHT22;65080;50.908;6.916;2023-08-12T10:31:13;24.90;79.50
76263;DHT22;65080;50.908;6.916;2023-08-12T10:33:43;25.00;79.50
76263;DHT22;65080;50.908;6.916;2023-08-12T10:36:11;25.00;78.90
76263;DHT22;65080;50.908;6.916;2023-08-12T10:38:40;25.10;78.20
76263;DHT22;65080;50.908;6.916;2023-08-12T10:41:16;25.10;77.70
76263;DHT22;65080;50.908;6.916;2023-08-12T10:43:55;25.10;77.10
76263;DHT22;65080;50.908;6.916;2023-08-12T10:46:28;25.00;77.00
76263;DHT22;65080;50.908;6.916;2023-08-12T10:49:03;25.10;77.10
76263;DHT22;65080;50.908;6.916;2023-08-12T10:51:45;25.00;76.80
76263;DHT22;65080;50.908;6.916;2023-08-12T10:54:14;25.00;76.90
76263;DHT22;65080;50.908;6.916;2023-08-12T10:57:04;25.00;76.90
76263;DHT22;65080;50.908;6.916;2023-08-12T10:59:51;25.00;76.60
76263;DHT22;65080;50.908;6.916;2023-08-12T11:02:21;25.00;75.80
76263;DHT22;65080;50.908;6.916;2023-08-12T11:04:53;25.00;75.70
76263;DHT22;65080;50.908;6.916;2023-08-12T11:07:28;24.90;75.30
76263;DHT22;65080;50.908;6.916;2023-08-12T11:10:03;24.90;75.90
76263;DHT22;65080;50.908;6.916;2023-08-12T11:12:34;24.90;75.30
76263;DHT22;65080;50.908;6.916;2023-08-12T11:15:03;24.80;75.00
76263;DHT22;65080;50.908;6.916;2023-08-12T11:17:33;24.90;74.90
76263;DHT22;65080;50.908;6.916;2023-08-12T11:20:05;24.90;74.80
76263;DHT22;65080;50.908;6.916;2023-08-12T11:22:36;24.90;74.70
76263;DHT22;65080;50.908;6.916;2023-08-12T11:25:06;24.90;74.80
76263;DHT22;65080;50.908;6.916;2023-08-12T11:27:40;25.00;75.00
76263;DHT22;65080;50.908;6.916;2023-08-12T11:30:09;25.00;74.80
76263;DHT22;65080;50.908;6.916;2023-08-12T11:32:39;25.00;74.70
76263;DHT22;65080;50.908;6.916;2023-08-12T11:35:10;25.00;74.60
76263;DHT22;65080;50.908;6.916;2023-08-12T11:37:39;25.10;74.50
76263;DHT22;65080;50.908;6.916;2023-08-12T11:40:09;25.10;74.60
76263;DHT22;65080;50.908;6.916;2023-08-12T11:42:39;25.10;74.60
76263;DHT22;65080;50.908;6.916;2023-08-12T11:45:08;25.20;74.70
76263;DHT22;65080;50.908;6.916;2023-08-12T11:47:37;25.10;74.50
76263;DHT22;65080;50.908;6.916;2023-08-12T11:50:09;25.20;74.60
76263;DHT22;65080;50.908;6.916;2023-08-12T11:52:38;25.20;74.50
76263;DHT22;65080;50.908;6.916;2023-08-12T11:55:08;25.20;74.60
76263;DHT22;65080;50.908;6.916;2023-08-12T11:57:39;25.30;74.80
76263;DHT22;65080;50.908;6.916;2023-08-12T12:00:09;25.30;75.40
76263;DHT22;65080;50.908;6.916;2023-08-12T12:02:45;25.40;74.70
76263;DHT22;65080;50.908;6.916;2023-08-12T12:05:15;25.40;74.50
76263;DHT22;65080;50.908;6.916;2023-08-12T12:07:45;25.50;74.10
76263;DHT22;65080;50.908;6.916;2023-08-12T12:10:13;25.50;73.40
76263;DHT22;65080;50.908;6.916;2023-08-12T12:12:44;25.60;73.00
76263;DHT22;65080;50.908;6.916;2023-08-12T12:15:13;25.60;72.90
76263;DHT22;65080;50.908;6.916;2023-08-12T12:17:45;25.60;72.40
76263;DHT22;65080;50.908;6.916;2023-08-12T12:20:15;25.50;72.20
76263;DHT22;65080;50.908;6.916;2023-08-12T12:22:44;25.60;72.10
76263;DHT22;65080;50.908;6.916;2023-08-12T12:25:13;25.60;72.20
76263;DHT22;65080;50.908;6.916;2023-08-12T12:27:42;25.60;72.30
76263;DHT22;65080;50.908;6.916;2023-08-12T12:30:13;25.70;72.30
76263;DHT22;65080;50.908;6.916;2023-08-12T12:32:45;25.70;72.20
76263;DHT22;65080;50.908;6.916;2023-08-12T12:35:15;25.70;72.30
76263;DHT22;65080;50.908;6.916;2023-08-12T12:37:43;25.70;72.40
76263;DHT22;65080;50.908;6.916;2023-08-12T12:40:12;25.70;72.20
76263;DHT22;65080;50.908;6.916;2023-08-12T12:42:40;25.70;72.00
76263;DHT22;65080;50.908;6.916;2023-08-12T12:45:09;25.70;71.90
76263;DHT22;65080;50.908;6.916;2023-08-12T12:47:37;25.80;71.90
76263;DHT22;65080;50.908;6.916;2023-08-12T12:50:06;25.80;71.80
76263;DHT22;65080;50.908;6.916;2023-08-12T12:52:36;25.80;71.70
76263;DHT22;65080;50.908;6.916;2023-08-12T12:55:05;25.80;71.70
76263;DHT22;65080;50.908;6.916;2023-08-12T12:57:33;25.90;71.80
76263;DHT22;65080;50.908;6.916;2023-08-12T13:00:01;26.00;71.60
76263;DHT22;65080;50.908;6.916;2023-08-12T13:02:31;26.00;71.30
76263;DHT22;65080;50.908;6.916;2023-08-12T13:04:59;26.10;70.90
76263;DHT22;65080;50.908;6.916;2023-08-12T13:07:28;26.20;70.50
76263;DHT22;65080;50.908;6.916;2023-08-12T13:09:57;26.30;70.10
76263;DHT22;65080;50.908;6.916;2023-08-12T13:12:25;26.40;70.00
76263;DHT22;65080;50.908;6.916;2023-08-12T13:14:54;26.80;70.10
76263;DHT22;65080;50.908;6.916;2023-08-12T13:17:22;27.00;69.00
76263;DHT22;65080;50.908;6.916;2023-08-12T13:19:50;27.10;68.60
76263;DHT22;65080;50.908;6.916;2023-08-12T13:22:18;27.10;68.40
76263;DHT22;65080;50.908;6.916;2023-08-12T13:24:47;27.20;68.40
76263;DHT22;65080;50.908;6.916;2023-08-12T13:27:17;27.30;68.00
76263;DHT22;65080;50.908;6.916;2023-08-12T13:29:45;27.30;68.20
76263;DHT22;65080;50.908;6.916;2023-08-12T13:32:13;27.50;68.20
76263;DHT22;65080;50.908;6.916;2023-08-12T13:34:42;27.70;67.70
76263;DHT22;65080;50.908;6.916;2023-08-12T13:37:13;27.90;67.50
76263;DHT22;65080;50.908;6.916;2023-08-12T13:39:42;28.00;67.30
76263;DHT22;65080;50.908;6.916;2023-08-12T13:42:10;28.10;67.00
76263;DHT22;65080;50.908;6.916;2023-08-12T13:44:40;28.10;66.80
76263;DHT22;65080;50.908;6.916;2023-08-12T13:47:08;27.90;66.70
76263;DHT22;65080;50.908;6.916;2023-08-12T13:49:36;28.00;67.10
76263;DHT22;65080;50.908;6.916;2023-08-12T13:52:05;28.20;66.90
76263;DHT22;65080;50.908;6.916;2023-08-12T13:54:34;28.30;66.30
76263;DHT22;65080;50.908;6.916;2023-08-12T13:57:03;28.30;65.80
76263;DHT22;65080;50.908;6.916;2023-08-12T13:59:31;28.30;66.20
76263;DHT22;65080;50.908;6.916;2023-08-12T14:02:01;28.30;66.20
76263;DHT22;65080;50.908;6.916;2023-08-12T14:04:29;28.60;65.60
76263;DHT22;65080;50.908;6.916;2023-08-12T14:06:58;28.60;64.60
76263;DHT22;65080;50.908;6.916;2023-08-12T14:09:26;28.50;63.60
76263;DHT22;65080;50.908;6.916;2023-08-12T14:11:55;28.40;63.30
76263;DHT22;65080;50.908;6.916;2023-08-12T14:14:25;28.50;62.90
76263;DHT22;65080;50.908;6.916;2023-08-12T14:16:54;28.80;62.20
76263;DHT22;65080;50.908;6.916;2023-08-12T14:19:24;29.20;61.20
76263;DHT22;65080;50.908;6.916;2023-08-12T14:21:52;29.60;60.00
76263;DHT22;65080;50.908;6.916;2023-08-12T14:24:20;30.00;59.20
76263;DHT22;65080;50.908;6.916;2023-08-12T14:26:49;30.30;58.00
76263;DHT22;65080;50.908;6.916;2023-08-12T14:29:17;30.60;57.40
76263;DHT22;65080;50.908;6.916;2023-08-12T14:31:45;30.90;56.50
76263;DHT22;65080;50.908;6.916;2023-08-12T14:34:13;31.10;55.50
76263;DHT22;65080;50.908;6.916;2023-08-12T14:36:43;31.20;55.10
76263;DHT22;65080;50.908;6.916;2023-08-12T14:39:11;31.40;54.70
76263;DHT22;65080;50.908;6.916;2023-08-12T14:41:40;31.40;54.00
76263;DHT22;65080;50.908;6.916;2023-08-12T14:44:08;31.20;53.90
76263;DHT22;65080;50.908;6.916;2023-08-12T14:46:36;31.00;53.60
76263;DHT22;65080;50.908;6.916;2023-08-12T14:49:04;31.00;53.50
76263;DHT22;65080;50.908;6.916;2023-08-12T14:51:33;31.10;53.40
76263;DHT22;65080;50.908;6.916;2023-08-12T14:54:02;31.30;53.10
76263;DHT22;65080;50.908;6.916;2023-08-12T14:56:31;31.50;52.20
76263;DHT22;65080;50.908;6.916;2023-08-12T14:58:59;31.50;51.80
76263;DHT22;65080;50.908;6.916;2023-08-12T15:01:27;31.50;51.50
76263;DHT22;65080;50.908;6.916;2023-08-12T15:03:55;31.10;51.60
76263;DHT22;65080;50.908;6.916;2023-08-12T15:06:24;30.80;51.90
76263;DHT22;65080;50.908;6.916;2023-08-12T15:08:53;30.70;51.60
76263;DHT22;65080;50.908;6.916;2023-08-12T15:11:23;30.80;51.60
76263;DHT22;65080;50.908;6.916;2023-08-12T15:13:52;30.80;50.80
76263;DHT22;65080;50.908;6.916;2023-08-12T15:16:20;30.80;50.90
76263;DHT22;65080;50.908;6.916;2023-08-12T15:18:48;30.70;51.00
76263;DHT22;65080;50.908;6.916;2023-08-12T15:21:17;30.80;50.90
76263;DHT22;65080;50.908;6.916;2023-08-12T15:23:45;30.90;50.70
76263;DHT22;65080;50.908;6.916;2023-08-12T15:26:13;31.20;50.70
76263;DHT22;65080;50.908;6.916;2023-08-12T15:28:43;31.40;50.30
76263;DHT22;65080;50.908;6.916;2023-08-12T15:31:11;31.50;50.00
76263;DHT22;65080;50.908;6.916;2023-08-12T15:33:40;31.60;50.00
76263;DHT22;65080;50.908;6.916;2023-08-12T15:36:08;31.70;49.50
76263;DHT22;65080;50.908;6.916;2023-08-12T15:38:36;31.70;49.40
76263;DHT22;65080;50.908;6.916;2023-08-12T15:41:12;31.60;48.80
76263;DHT22;65080;50.908;6.916;2023-08-12T15:43:43;31.20;48.70